Terminal Aerodrome Forecast
Issued by NWS

Home | Current Version | Previous Version | Text Only | Print | Product List | Glossary On
Versions: 1 2 3 4 5 6 7 8 9 10 11 12 13 14 15 16 17
285
FTUS43 KDLH 240520
TAFHIB
TAF
KHIB 240520Z 2406/2506 09008KT P6SM VCSH SCT035 OVC080
     FM240800 10012KT P6SM BKN100
     FM241400 11014G20KT P6SM BKN080
     FM242300 12008KT P6SM SCT025 BKN040
     FM250300 13005KT P6SM VCSH BKN025 OVC040=

USA.gov is the U.S. government's official web portal to all federal, state and local government web resources and services.